Time;durP1;ratioP1;P1;durP2;ratioP2;P2;SDS_P1;SDS_P2;PMS_P1;PMS_P2;Temp;Humidity;BMP_temperature;BMP_pressure;BME280_temperature;BME280_humidity;BME280_pressure;Samples;Min_cycle;Max_cycle;Signal;HPM_P1;HPM_P2
2022/02/12 00:00:42;;;;;;;21.55;10.70;;;1.70;81.60;;;;;;4971496;28;20042;-74
2022/02/12 00:03:09;;;;;;;18.33;10.07;;;1.70;81.60;;;;;;4967530;28;20045;-74
2022/02/12 00:05:35;;;;;;;18.77;10.88;;;1.70;81.50;;;;;;4965818;28;20023;-76
2022/02/12 00:08:01;;;;;;;18.23;11.07;;;1.60;81.40;;;;;;4986350;28;20569;-73
2022/02/12 00:10:29;;;;;;;18.48;10.88;;;1.60;81.40;;;;;;4954060;28;20426;-75
2022/02/12 00:12:55;;;;;;;19.42;10.82;;;1.60;81.30;;;;;;4960760;28;20039;-73
2022/02/12 00:15:22;;;;;;;19.30;9.98;;;1.60;81.40;;;;;;4964533;28;20043;-74
2022/02/12 00:17:48;;;;;;;21.75;11.38;;;1.60;81.40;;;;;;4965431;28;20517;-75
2022/02/12 00:20:14;;;;;;;20.92;10.35;;;1.60;81.60;;;;;;4964854;28;20045;-73
2022/02/12 00:22:41;;;;;;;18.52;10.32;;;1.60;81.60;;;;;;4966607;28;20046;-74
2022/02/12 00:25:08;;;;;;;20.52;9.57;;;1.60;81.60;;;;;;4962552;28;20071;-75
2022/02/12 00:27:34;;;;;;;19.48;10.93;;;1.50;81.60;;;;;;4966839;28;20026;-73
2022/02/12 00:30:00;;;;;;;21.38;10.75;;;1.50;81.70;;;;;;4949522;28;20454;-73
2022/02/12 00:32:26;;;;;;;24.92;11.05;;;1.50;81.60;;;;;;4966670;28;20636;-75
2022/02/12 00:34:52;;;;;;;17.70;11.18;;;1.50;81.70;;;;;;4966578;28;20055;-72
2022/02/12 00:37:18;;;;;;;22.63;10.82;;;1.50;81.70;;;;;;4953623;28;20485;-73
2022/02/12 00:39:43;;;;;;;17.15;9.98;;;1.50;81.70;;;;;;4971362;28;20453;-74
2022/02/12 00:42:09;;;;;;;22.85;12.40;;;1.40;81.90;;;;;;4970975;28;20085;-73
2022/02/12 00:44:35;;;;;;;20.90;9.90;;;1.50;82.10;;;;;;4969994;28;20027;-73
2022/02/12 00:47:01;;;;;;;20.55;10.82;;;1.60;82.20;;;;;;4978271;28;20047;-74
2022/02/12 00:49:26;;;;;;;20.35;11.02;;;1.60;82.00;;;;;;4963321;28;20082;-72
2022/02/12 00:51:53;;;;;;;23.17;10.77;;;1.60;82.10;;;;;;4975974;28;20038;-73
2022/02/12 00:54:19;;;;;;;22.10;10.70;;;1.60;82.10;;;;;;4967928;28;20031;-75
2022/02/12 00:56:45;;;;;;;17.45;10.40;;;1.60;82.10;;;;;;4947861;28;20495;-73
2022/02/12 00:59:11;;;;;;;16.85;10.45;;;1.70;82.10;;;;;;4966041;28;20493;-74
2022/02/12 01:01:37;;;;;;;17.80;9.85;;;1.60;82.20;;;;;;4964811;28;20042;-74
2022/02/12 01:04:04;;;;;;;20.42;10.32;;;1.60;82.20;;;;;;4948944;28;20035;-73
2022/02/12 01:06:31;;;;;;;17.30;10.02;;;1.60;82.20;;;;;;4970251;28;20530;-74
2022/02/12 01:08:57;;;;;;;19.95;10.00;;;1.60;82.30;;;;;;4966129;28;20039;-74
2022/02/12 01:11:23;;;;;;;21.10;10.65;;;1.50;82.40;;;;;;4977148;28;20038;-75
2022/02/12 01:13:48;;;;;;;22.48;10.13;;;1.50;82.40;;;;;;4978922;28;20047;-73
2022/02/12 01:16:14;;;;;;;19.27;10.20;;;1.50;82.50;;;;;;4969053;28;20168;-73
2022/02/12 01:18:40;;;;;;;20.05;11.07;;;1.40;82.50;;;;;;4967012;28;20045;-75
2022/02/12 01:21:06;;;;;;;22.42;11.75;;;1.50;82.70;;;;;;4963665;28;20386;-74
2022/02/12 01:23:32;;;;;;;21.13;10.88;;;1.50;82.70;;;;;;4960381;28;20055;-76
2022/02/12 01:25:58;;;;;;;19.80;10.57;;;1.50;82.80;;;;;;4965652;28;20134;-74
2022/02/12 01:28:23;;;;;;;20.52;11.80;;;1.40;82.90;;;;;;4976586;28;20042;-73
2022/02/12 01:30:49;;;;;;;19.83;11.43;;;1.50;83.00;;;;;;4972709;28;20603;-73
2022/02/12 01:33:15;;;;;;;20.58;11.90;;;1.50;83.00;;;;;;4968184;28;20042;-75
2022/02/12 01:35:42;;;;;;;21.25;12.95;;;1.50;83.10;;;;;;4970977;28;20062;-73
2022/02/12 01:38:07;;;;;;;28.33;14.30;;;1.50;83.10;;;;;;4963480;28;20097;-73
2022/02/12 01:40:33;;;;;;;26.80;13.18;;;1.50;83.30;;;;;;4972531;28;20465;-73
2022/02/12 01:43:02;;;;;;;21.77;12.48;;;1.60;83.40;;;;;;4971186;28;20360;-73
2022/02/12 01:45:28;;;;;;;22.85;12.63;;;1.60;83.30;;;;;;4974937;28;20050;-73
2022/02/12 01:47:54;;;;;;;25.13;13.35;;;1.60;83.00;;;;;;4971073;28;20532;-74
2022/02/12 01:50:20;;;;;;;25.58;13.05;;;1.60;83.00;;;;;;4950648;28;20516;-72
2022/02/12 01:52:47;;;;;;;21.85;13.35;;;1.60;83.00;;;;;;4974665;28;20038;-74
2022/02/12 01:55:13;;;;;;;27.73;14.88;;;1.70;83.00;;;;;;4976680;28;20339;-72
2022/02/12 01:57:39;;;;;;;21.73;12.70;;;1.60;83.00;;;;;;4974555;28;20454;-75
2022/02/12 02:00:08;;;;;;;27.00;13.25;;;1.60;83.10;;;;;;4953705;28;20062;-74
2022/02/12 02:02:34;;;;;;;24.95;12.57;;;1.60;83.00;;;;;;4959861;28;20371;-74
2022/02/12 02:05:01;;;;;;;25.20;12.85;;;1.60;83.10;;;;;;4980754;28;20092;-75
2022/02/12 02:07:26;;;;;;;25.55;13.07;;;1.60;83.10;;;;;;4967353;28;20433;-73
2022/02/12 02:09:52;;;;;;;24.38;12.38;;;1.70;82.90;;;;;;4981455;28;20046;-72
2022/02/12 02:12:18;;;;;;;22.73;12.63;;;1.60;82.90;;;;;;4965747;28;20461;-73
2022/02/12 02:14:44;;;;;;;27.20;14.75;;;1.60;82.80;;;;;;4967810;28;20046;-73
2022/02/12 02:17:10;;;;;;;25.75;14.80;;;1.60;82.90;;;;;;4983016;28;20118;-72
2022/02/12 02:19:37;;;;;;;27.45;15.25;;;1.60;83.00;;;;;;4961015;28;20059;-76
2022/02/12 02:22:04;;;;;;;26.90;16.65;;;1.60;82.90;;;;;;4961759;28;20485;-74
2022/02/12 02:24:30;;;;;;;25.85;16.13;;;1.60;82.80;;;;;;4966742;28;20575;-76
2022/02/12 02:27:15;;;;;;;25.45;15.32;;;1.60;82.80;;;;;;4971903;28;20093;-75
2022/02/12 02:29:42;;;;;;;26.45;15.23;;;1.60;82.90;;;;;;4971878;28;20035;-73
2022/02/12 02:32:10;;;;;;;22.40;13.48;;;1.60;82.90;;;;;;4968919;28;20521;-73
2022/02/12 02:34:37;;;;;;;24.58;14.38;;;1.60;82.90;;;;;;4961736;28;20905;-73
2022/02/12 02:37:03;;;;;;;21.58;14.27;;;1.50;82.90;;;;;;4968976;28;20347;-72
2022/02/12 02:39:28;;;;;;;27.70;15.45;;;1.50;83.10;;;;;;4975009;28;20156;-73
2022/02/12 02:41:54;;;;;;;27.02;15.30;;;1.50;83.20;;;;;;4965123;28;20220;-73
2022/02/12 02:44:21;;;;;;;21.30;14.50;;;1.40;83.20;;;;;;4959807;28;20524;-75
2022/02/12 02:46:46;;;;;;;30.25;15.35;;;1.40;83.30;;;;;;4972668;28;20390;-74
2022/02/12 02:49:12;;;;;;;31.25;17.40;;;1.40;83.20;;;;;;4970656;28;20035;-73
2022/02/12 02:57:06;;;;;;;39.25;20.30;;;1.30;83.30;;;;;;4972346;28;20137;-74
2022/02/12 02:59:31;;;;;;;36.65;18.58;;;1.20;83.40;;;;;;4974506;28;20102;-73
2022/02/12 03:01:57;;;;;;;31.77;17.95;;;1.20;83.40;;;;;;4978612;28;20488;-73
2022/02/12 03:04:24;;;;;;;34.42;18.13;;;1.20;83.40;;;;;;4969777;28;20455;-76
2022/02/12 03:06:51;;;;;;;30.42;18.08;;;1.20;83.50;;;;;;4974963;28;20089;-73
2022/02/12 03:09:16;;;;;;;32.22;17.92;;;1.20;83.40;;;;;;4974590;28;20546;-74
2022/02/12 03:11:42;;;;;;;28.98;16.98;;;1.10;83.50;;;;;;4978089;28;20133;-73
2022/02/12 03:14:08;;;;;;;32.00;18.55;;;1.10;83.50;;;;;;4960964;28;20081;-75
2022/02/12 03:16:36;;;;;;;29.25;17.15;;;1.10;83.60;;;;;;4968459;28;20046;-73
2022/02/12 03:19:03;;;;;;;29.33;18.38;;;1.10;83.60;;;;;;4961581;28;20030;-73
2022/02/12 03:21:28;;;;;;;26.15;15.32;;;1.10;83.60;;;;;;4969383;28;20076;-73
2022/02/12 03:23:54;;;;;;;28.55;16.38;;;1.00;83.70;;;;;;4962898;28;20039;-74
2022/02/12 03:26:20;;;;;;;23.50;15.30;;;1.00;83.80;;;;;;4967666;28;20053;-75
2022/02/12 03:28:46;;;;;;;26.50;15.00;;;1.00;83.90;;;;;;4968736;28;20041;-75
2022/02/12 03:31:12;;;;;;;26.73;16.55;;;1.00;84.00;;;;;;4968217;28;20039;-74
2022/02/12 03:33:38;;;;;;;26.27;15.52;;;1.00;84.00;;;;;;4973181;28;20034;-73
2022/02/12 03:36:04;;;;;;;25.10;15.15;;;1.00;84.20;;;;;;4965337;28;20362;-74
2022/02/12 03:38:40;;;;;;;25.25;15.27;;;1.00;84.10;;;;;;4950063;28;20109;-74
2022/02/12 03:41:07;;;;;;;24.63;15.38;;;1.00;84.20;;;;;;4969383;28;20033;-74
2022/02/12 03:43:35;;;;;;;26.00;15.85;;;1.00;84.30;;;;;;4974019;28;20046;-73
2022/02/12 03:46:02;;;;;;;28.38;14.85;;;1.00;84.30;;;;;;4967032;28;20296;-74
2022/02/12 03:48:28;;;;;;;23.38;15.23;;;1.00;84.30;;;;;;4966968;28;20027;-73
2022/02/12 03:50:54;;;;;;;26.27;14.60;;;0.90;84.30;;;;;;4963968;28;20430;-75
2022/02/12 03:53:21;;;;;;;27.75;15.57;;;1.00;84.30;;;;;;4965531;28;20388;-73
2022/02/12 03:55:46;;;;;;;23.73;15.50;;;0.90;84.30;;;;;;4957789;28;20264;-74
2022/02/12 03:58:15;;;;;;;24.42;15.38;;;0.90;84.30;;;;;;4953903;28;20030;-73
2022/02/12 04:00:41;;;;;;;27.25;15.20;;;0.90;84.30;;;;;;4970983;28;20042;-74
2022/02/12 04:03:08;;;;;;;24.80;14.57;;;0.90;84.30;;;;;;4974554;28;20522;-75
2022/02/12 04:05:35;;;;;;;26.05;14.27;;;0.90;84.30;;;;;;4971996;28;20521;-74
2022/02/12 04:08:01;;;;;;;24.17;15.23;;;0.90;84.20;;;;;;4977414;28;20030;-74
2022/02/12 04:10:27;;;;;;;27.52;14.60;;;0.90;84.20;;;;;;4976315;28;20466;-74
2022/02/12 04:12:53;;;;;;;23.08;13.43;;;1.00;84.20;;;;;;4981955;28;20053;-74
2022/02/12 04:15:20;;;;;;;24.25;14.02;;;0.90;84.20;;;;;;4948781;28;20100;-73
2022/02/12 04:17:46;;;;;;;23.58;13.98;;;1.00;84.30;;;;;;4986618;28;20043;-74
2022/02/12 04:20:15;;;;;;;22.42;13.10;;;1.10;84.30;;;;;;4948880;28;20042;-73
2022/02/12 04:22:41;;;;;;;24.48;13.68;;;1.10;84.30;;;;;;4970586;28;20486;-73
2022/02/12 04:25:11;;;;;;;20.80;12.65;;;1.10;84.10;;;;;;4966093;28;20421;-73
2022/02/12 04:27:37;;;;;;;19.13;12.18;;;1.10;84.20;;;;;;4971249;28;20121;-74
2022/02/12 04:30:05;;;;;;;21.45;12.65;;;1.10;84.20;;;;;;4969968;28;20389;-73
2022/02/12 04:32:30;;;;;;;24.40;13.55;;;1.10;84.30;;;;;;4977830;28;20069;-73
2022/02/12 04:34:56;;;;;;;23.35;14.27;;;1.10;84.30;;;;;;4972243;28;20030;-73
2022/02/12 04:37:23;;;;;;;23.67;12.88;;;1.10;84.30;;;;;;4969792;28;20035;-73
2022/02/12 04:39:49;;;;;;;18.92;12.50;;;1.10;84.20;;;;;;4968629;28;20055;-72
2022/02/12 04:42:16;;;;;;;22.42;12.63;;;1.10;84.30;;;;;;4971380;28;20438;-72
2022/02/12 04:44:44;;;;;;;24.05;13.70;;;1.10;84.30;;;;;;4968549;28;20455;-73
2022/02/12 04:47:10;;;;;;;22.13;12.32;;;1.10;84.30;;;;;;4976744;28;20098;-75
2022/02/12 04:49:37;;;;;;;19.65;11.88;;;1.10;84.40;;;;;;4967382;28;20027;-73
2022/02/12 04:52:04;;;;;;;21.75;12.38;;;1.10;84.50;;;;;;4967096;28;20536;-73
2022/02/12 04:54:30;;;;;;;18.40;10.98;;;1.10;84.60;;;;;;4966790;28;20038;-75
2022/02/12 04:56:56;;;;;;;22.42;12.30;;;1.10;84.50;;;;;;4970216;28;20038;-73
2022/02/12 04:59:22;;;;;;;20.10;12.20;;;1.10;84.50;;;;;;4969381;28;20137;-75
2022/02/12 05:01:50;;;;;;;24.70;12.65;;;1.10;84.50;;;;;;4972464;28;20394;-73
2022/02/12 05:04:16;;;;;;;19.55;12.23;;;1.10;84.40;;;;;;4977392;28;20046;-75
2022/02/12 05:06:42;;;;;;;19.05;12.38;;;1.10;84.40;;;;;;4977031;28;20035;-74
2022/02/12 05:09:08;;;;;;;20.08;11.82;;;1.10;84.30;;;;;;4974291;28;20097;-74
2022/02/12 05:11:34;;;;;;;22.45;11.93;;;1.00;84.30;;;;;;4993005;28;20035;-73
2022/02/12 05:13:59;;;;;;;20.58;11.80;;;1.00;84.20;;;;;;4971517;28;20035;-74
2022/02/12 05:16:25;;;;;;;17.42;10.93;;;1.00;84.20;;;;;;4956710;28;20034;-73
2022/02/12 05:18:50;;;;;;;18.75;11.80;;;0.90;84.20;;;;;;4971566;28;20540;-73
2022/02/12 05:21:16;;;;;;;20.02;11.95;;;0.90;84.20;;;;;;4947594;28;20085;-73
2022/02/12 05:23:44;;;;;;;19.98;11.20;;;0.80;84.20;;;;;;4948541;28;20038;-74
2022/02/12 05:26:10;;;;;;;20.98;12.07;;;0.80;84.20;;;;;;4969967;28;20462;-74
2022/02/12 05:28:36;;;;;;;17.15;11.57;;;0.80;84.30;;;;;;4965729;28;20035;-74
2022/02/12 05:31:01;;;;;;;20.95;12.07;;;0.70;84.40;;;;;;4972211;28;20034;-73
2022/02/12 05:33:27;;;;;;;20.92;12.75;;;0.70;84.40;;;;;;4965336;28;20061;-75
2022/02/12 05:35:53;;;;;;;22.77;12.68;;;0.60;84.50;;;;;;4972085;28;20030;-73
2022/02/12 05:38:18;;;;;;;25.70;13.57;;;0.60;84.70;;;;;;4970978;28;20558;-74
2022/02/12 05:40:44;;;;;;;25.95;15.55;;;0.60;84.70;;;;;;4975633;28;20129;-74
2022/02/12 05:43:10;;;;;;;27.88;16.20;;;0.60;84.80;;;;;;4946579;28;20081;-77
2022/02/12 05:45:36;;;;;;;34.50;17.42;;;0.50;84.90;;;;;;4973546;28;20037;-73
2022/02/12 05:48:02;;;;;;;29.17;17.52;;;0.40;85.00;;;;;;4976571;28;20035;-76
2022/02/12 05:50:29;;;;;;;26.13;16.73;;;0.40;85.10;;;;;;4979109;28;20030;-75
2022/02/12 05:52:56;;;;;;;24.63;14.13;;;0.40;85.30;;;;;;4961333;28;20042;-74
2022/02/12 05:55:23;;;;;;;29.50;13.50;;;0.40;85.90;;;;;;4976831;28;20168;-74
2022/02/12 05:57:49;;;;;;;21.83;12.80;;;0.50;86.10;;;;;;4953018;28;20046;-73
2022/02/12 06:00:15;;;;;;;23.42;13.60;;;0.50;86.10;;;;;;4976528;28;20034;-75
2022/02/12 06:02:41;;;;;;;21.70;12.77;;;0.50;86.00;;;;;;4973343;28;20096;-76
2022/02/12 06:05:07;;;;;;;22.27;12.90;;;0.50;85.90;;;;;;4978936;28;20035;-73
2022/02/12 06:07:33;;;;;;;29.67;12.88;;;0.60;85.70;;;;;;4982744;28;20030;-75
2022/02/12 06:09:58;;;;;;;21.90;10.93;;;0.50;85.70;;;;;;4979481;28;20353;-75
2022/02/12 06:12:24;;;;;;;21.95;11.48;;;0.50;85.80;;;;;;4981629;28;20200;-75
2022/02/12 06:14:49;;;;;;;22.25;11.57;;;0.50;85.80;;;;;;4968982;28;20089;-74
2022/02/12 06:17:15;;;;;;;21.90;12.32;;;0.60;86.00;;;;;;4971209;28;20062;-74
2022/02/12 06:19:41;;;;;;;23.73;12.43;;;0.60;85.90;;;;;;4967188;28;20030;-74
2022/02/12 06:22:06;;;;;;;22.73;12.23;;;0.60;85.90;;;;;;4977989;28;20921;-75
2022/02/12 06:24:32;;;;;;;26.00;13.27;;;0.60;85.80;;;;;;4974295;28;20018;-77
2022/02/12 06:26:58;;;;;;;25.50;13.05;;;0.60;85.70;;;;;;4973992;28;20113;-74
2022/02/12 06:29:24;;;;;;;29.85;14.77;;;0.50;85.70;;;;;;4976407;28;20461;-74
2022/02/12 06:31:50;;;;;;;29.73;15.60;;;0.60;85.80;;;;;;4970860;28;20042;-75
2022/02/12 06:34:16;;;;;;;38.72;16.58;;;0.60;85.90;;;;;;4977925;28;20034;-76
2022/02/12 06:36:42;;;;;;;32.53;15.82;;;0.60;85.90;;;;;;4970787;28;20382;-75
2022/02/12 06:39:08;;;;;;;23.48;14.85;;;0.60;86.00;;;;;;4973507;28;20041;-73
2022/02/12 06:41:35;;;;;;;27.77;14.85;;;0.70;85.80;;;;;;4980625;28;20030;-74
2022/02/12 06:44:01;;;;;;;27.77;14.82;;;0.70;85.50;;;;;;4965448;28;20050;-74
2022/02/12 06:46:27;;;;;;;22.63;13.70;;;0.70;85.60;;;;;;4974306;28;20537;-74
2022/02/12 06:48:52;;;;;;;25.30;14.00;;;0.70;85.50;;;;;;4968524;28;20038;-74
2022/02/12 06:51:18;;;;;;;28.10;14.02;;;0.70;85.40;;;;;;4967513;28;20033;-75
2022/02/12 06:53:44;;;;;;;24.08;13.30;;;0.70;85.40;;;;;;4971897;28;20022;-74
2022/02/12 06:56:10;;;;;;;24.00;14.75;;;0.70;85.40;;;;;;4970005;28;20473;-76
2022/02/12 06:58:36;;;;;;;21.70;13.50;;;0.70;85.30;;;;;;4977364;28;20034;-74
2022/02/12 07:01:03;;;;;;;22.75;13.38;;;0.70;85.30;;;;;;4976826;28;20034;-76
2022/02/12 07:03:28;;;;;;;25.40;12.95;;;0.70;85.30;;;;;;4977718;28;20394;-74
2022/02/12 07:05:54;;;;;;;26.83;13.55;;;0.60;85.30;;;;;;4971073;28;20043;-76
2022/02/12 07:08:20;;;;;;;22.88;14.00;;;0.70;85.30;;;;;;4954485;28;20057;-74
2022/02/12 07:10:46;;;;;;;25.92;12.80;;;0.60;85.20;;;;;;4960498;28;20030;-74
2022/02/12 07:13:13;;;;;;;21.63;13.70;;;0.60;85.30;;;;;;4967627;28;20458;-74
2022/02/12 07:15:39;;;;;;;23.33;12.77;;;0.70;85.20;;;;;;4953480;28;20043;-74
2022/02/12 07:18:05;;;;;;;24.98;13.52;;;0.70;85.10;;;;;;4970908;28;20069;-74
2022/02/12 07:20:31;;;;;;;27.05;14.13;;;0.70;85.10;;;;;;4974558;28;20458;-74
2022/02/12 07:22:56;;;;;;;23.23;12.50;;;0.60;85.00;;;;;;4978906;28;20466;-75
2022/02/12 07:25:22;;;;;;;21.88;12.27;;;0.70;85.10;;;;;;4973436;28;20657;-74
2022/02/12 07:27:53;;;;;;;22.88;12.23;;;0.70;85.10;;;;;;4966510;28;20045;-74
2022/02/12 07:30:18;;;;;;;24.52;11.20;;;0.70;85.20;;;;;;4963289;28;20039;-74
2022/02/12 07:32:44;;;;;;;22.75;10.95;;;0.70;85.10;;;;;;4953389;28;20108;-77
2022/02/12 07:35:12;;;;;;;22.60;11.13;;;0.80;85.00;;;;;;4941629;28;20141;-74
2022/02/12 07:37:39;;;;;;;23.60;11.23;;;0.80;84.90;;;;;;4958372;28;20066;-75
2022/02/12 07:40:07;;;;;;;23.13;11.77;;;0.80;84.80;;;;;;4972787;28;20062;-75
2022/02/12 07:42:33;;;;;;;22.60;11.10;;;0.80;84.70;;;;;;4952338;28;20521;-74
2022/02/12 07:44:58;;;;;;;16.17;9.82;;;0.80;84.60;;;;;;4956170;28;20062;-75
2022/02/12 07:47:24;;;;;;;18.80;10.05;;;0.80;84.50;;;;;;4960481;28;20118;-75
2022/02/12 07:49:50;;;;;;;24.17;9.80;;;0.90;84.30;;;;;;4962383;28;20036;-74
2022/02/12 07:52:16;;;;;;;18.38;10.98;;;1.00;84.30;;;;;;4957126;28;20035;-76
2022/02/12 07:54:41;;;;;;;21.85;10.52;;;1.00;84.20;;;;;;4957954;28;20572;-74
2022/02/12 07:57:07;;;;;;;17.80;10.05;;;1.00;84.10;;;;;;4955251;28;20031;-75
2022/02/12 07:59:33;;;;;;;22.52;11.35;;;1.10;84.10;;;;;;4955579;28;20478;-72
2022/02/12 08:01:58;;;;;;;19.70;9.63;;;1.20;83.90;;;;;;4943643;28;20042;-73
2022/02/12 08:04:24;;;;;;;21.17;10.48;;;1.20;83.80;;;;;;4956704;28;20435;-75
2022/02/12 08:09:34;;;;;;;22.30;10.25;;;1.30;83.70;;;;;;4960687;28;20038;-74
2022/02/12 08:12:15;;;;;;;18.33;9.38;;;1.40;83.50;;;;;;4954521;28;20027;-73
2022/02/12 08:14:52;;;;;;;21.05;9.55;;;1.50;83.20;;;;;;4958980;28;20389;-74
2022/02/12 08:17:19;;;;;;;19.50;10.38;;;1.50;83.10;;;;;;4960065;28;20118;-74
2022/02/12 08:19:46;;;;;;;19.80;11.48;;;1.60;82.90;;;;;;4961199;28;20494;-72
2022/02/12 08:22:12;;;;;;;20.58;9.90;;;1.70;82.50;;;;;;4952499;28;20467;-74
2022/02/12 08:24:38;;;;;;;20.08;10.10;;;1.80;82.10;;;;;;4955489;28;20132;-71
2022/02/12 08:27:05;;;;;;;18.98;9.25;;;1.80;81.90;;;;;;4957180;28;20043;-72
2022/02/12 08:29:31;;;;;;;18.35;8.48;;;1.90;81.80;;;;;;4952878;28;20118;-77
2022/02/12 08:31:58;;;;;;;25.30;9.70;;;2.00;81.70;;;;;;4937566;28;20043;-73
2022/02/12 08:34:25;;;;;;;16.48;8.70;;;2.00;81.70;;;;;;4936517;28;20031;-71
2022/02/12 08:36:52;;;;;;;17.00;9.07;;;2.10;81.50;;;;;;4955634;28;20036;-71
2022/02/12 08:39:18;;;;;;;18.55;8.93;;;2.20;81.40;;;;;;4958714;28;20027;-72
2022/02/12 08:41:44;;;;;;;17.27;8.80;;;2.40;80.90;;;;;;4939728;28;20676;-73
2022/02/12 08:44:09;;;;;;;19.08;9.18;;;2.40;80.70;;;;;;4956746;28;20114;-71
2022/02/12 08:46:35;;;;;;;19.15;9.82;;;2.60;80.50;;;;;;4960163;28;20046;-71
2022/02/12 08:49:01;;;;;;;15.35;7.93;;;2.70;80.30;;;;;;4955403;28;20143;-72
2022/02/12 08:51:27;;;;;;;14.63;8.63;;;2.80;80.00;;;;;;4954913;28;20031;-73
2022/02/12 08:53:53;;;;;;;17.60;8.90;;;3.00;79.60;;;;;;4961571;28;20043;-70
2022/02/12 08:56:21;;;;;;;17.10;8.13;;;3.20;79.10;;;;;;4968813;28;20039;-75
2022/02/12 08:58:48;;;;;;;21.20;8.25;;;3.50;78.70;;;;;;4959664;28;20066;-74
2022/02/12 09:01:15;;;;;;;17.02;7.85;;;3.70;77.50;;;;;;4949143;28;20375;-72
2022/02/12 09:03:41;;;;;;;20.58;8.05;;;4.00;76.80;;;;;;4970642;28;20060;-72
2022/02/12 09:06:06;;;;;;;17.58;8.68;;;4.30;76.20;;;;;;4968455;28;20034;-73
2022/02/12 09:08:32;;;;;;;17.88;10.93;;;4.60;74.60;;;;;;4974844;28;20034;-76
2022/02/12 09:10:58;;;;;;;15.75;8.52;;;4.90;74.10;;;;;;4969056;28;20532;-74
2022/02/12 09:13:23;;;;;;;16.30;7.63;;;5.20;72.80;;;;;;4972257;28;20043;-74
2022/02/12 09:15:49;;;;;;;14.20;7.30;;;5.50;72.80;;;;;;4974243;28;20058;-72
2022/02/12 09:18:15;;;;;;;15.98;6.80;;;5.60;71.20;;;;;;4957882;28;20471;-72
2022/02/12 09:20:41;;;;;;;14.30;6.88;;;5.50;70.40;;;;;;4977198;28;20042;-72
2022/02/12 09:23:07;;;;;;;19.17;7.07;;;5.40;71.00;;;;;;4977546;28;20074;-72
2022/02/12 09:25:33;;;;;;;12.40;6.32;;;5.20;71.00;;;;;;4966727;28;20054;-71
2022/02/12 09:28:00;;;;;;;14.40;6.65;;;5.20;71.40;;;;;;4960813;28;20039;-72
2022/02/12 09:30:26;;;;;;;16.35;6.43;;;5.10;71.30;;;;;;4956084;28;20049;-72
2022/02/12 09:32:53;;;;;;;15.73;6.82;;;5.10;72.00;;;;;;4964560;28;20047;-72
2022/02/12 09:35:19;;;;;;;16.00;6.75;;;5.10;71.90;;;;;;4959970;28;20037;-71
2022/02/12 09:37:45;;;;;;;14.15;6.35;;;5.20;71.90;;;;;;4964393;28;20433;-73
2022/02/12 09:40:12;;;;;;;13.18;6.40;;;5.40;71.60;;;;;;4960825;28;20050;-72
2022/02/12 09:42:38;;;;;;;13.27;6.22;;;5.70;71.40;;;;;;4960407;28;20155;-73
2022/02/12 09:45:08;;;;;;;21.00;8.18;;;5.90;70.60;;;;;;4947675;28;20035;-74
2022/02/12 09:47:48;;;;;;;16.27;7.05;;;6.10;70.00;;;;;;4962664;28;20100;-77
2022/02/12 09:50:16;;;;;;;16.60;6.32;;;6.20;69.70;;;;;;4966845;28;20050;-73
2022/02/12 09:52:52;;;;;;;14.80;6.88;;;6.10;69.50;;;;;;4957257;28;20498;-72
2022/02/12 09:55:18;;;;;;;17.80;7.78;;;6.20;69.60;;;;;;4972227;28;20046;-72
2022/02/12 09:57:44;;;;;;;19.77;7.13;;;6.20;69.00;;;;;;4969388;28;20045;-75
2022/02/12 10:00:14;;;;;;;16.67;7.35;;;6.40;69.00;;;;;;4972330;28;20030;-76
2022/02/12 10:02:40;;;;;;;22.73;7.78;;;6.70;68.70;;;;;;4960968;28;20043;-73
2022/02/12 10:05:26;;;;;;;17.70;8.07;;;6.70;67.50;;;;;;4971006;28;20026;-71
2022/02/12 10:08:00;;;;;;;21.38;8.93;;;6.70;67.00;;;;;;4971119;28;20045;-72
2022/02/12 10:10:28;;;;;;;19.90;8.30;;;6.70;67.40;;;;;;4967032;28;20053;-75
2022/02/12 10:13:09;;;;;;;21.35;8.30;;;6.80;67.30;;;;;;4967845;28;20481;-71
2022/02/12 10:15:35;;;;;;;23.02;8.25;;;6.90;67.10;;;;;;4966175;28;20522;-74
2022/02/12 10:18:01;;;;;;;16.23;8.15;;;7.10;67.10;;;;;;4970458;28;20533;-71
2022/02/12 10:20:33;;;;;;;21.23;8.38;;;7.00;66.50;;;;;;4974237;28;20414;-74
2022/02/12 10:23:19;;;;;;;18.38;7.85;;;7.10;66.60;;;;;;4968653;28;20272;-72
2022/02/12 10:26:05;;;;;;;18.08;8.35;;;7.10;66.20;;;;;;4970570;28;21189;-71
2022/02/12 10:28:35;;;;;;;21.17;7.50;;;7.20;65.90;;;;;;4970873;28;20050;-70
2022/02/12 10:31:02;;;;;;;19.27;8.07;;;7.10;65.30;;;;;;4970393;28;20518;-75
2022/02/12 10:33:29;;;;;;;19.63;9.00;;;7.00;65.30;;;;;;4965226;28;20042;-71
2022/02/12 10:35:59;;;;;;;20.08;8.63;;;7.10;65.50;;;;;;4971997;28;20034;-72
2022/02/12 10:38:28;;;;;;;19.73;7.45;;;7.20;65.90;;;;;;4974225;28;20037;-72
2022/02/12 10:41:07;;;;;;;18.83;8.25;;;7.30;65.20;;;;;;4980018;28;20034;-72
2022/02/12 10:43:34;;;;;;;18.25;7.82;;;7.20;65.20;;;;;;4969974;28;20093;-72
2022/02/12 10:46:01;;;;;;;23.25;8.50;;;7.10;65.00;;;;;;4968907;28;20033;-72
2022/02/12 10:48:29;;;;;;;18.23;7.85;;;7.30;64.80;;;;;;4972939;28;20038;-72
2022/02/12 10:51:01;;;;;;;20.80;8.35;;;7.50;64.30;;;;;;4969809;28;20038;-73
2022/02/12 10:53:27;;;;;;;20.30;7.43;;;7.50;63.90;;;;;;4967715;28;20077;-73
2022/02/12 10:56:00;;;;;;;19.58;8.18;;;7.40;62.90;;;;;;4968949;28;20543;-71
2022/02/12 10:58:26;;;;;;;20.58;8.80;;;7.50;63.00;;;;;;4969894;28;20121;-73
2022/02/12 11:00:52;;;;;;;17.08;8.32;;;7.50;63.30;;;;;;4966002;28;20491;-71
2022/02/12 11:03:20;;;;;;;19.02;8.25;;;7.40;63.20;;;;;;4968307;28;20039;-73
2022/02/12 11:05:52;;;;;;;21.58;8.68;;;7.60;62.90;;;;;;4967299;28;20038;-73
2022/02/12 11:08:25;;;;;;;20.42;8.90;;;7.60;62.90;;;;;;4966189;28;20030;-73
2022/02/12 11:10:51;;;;;;;21.13;7.72;;;7.50;62.20;;;;;;4955483;28;20088;-73
2022/02/12 11:13:21;;;;;;;17.23;8.20;;;7.70;61.90;;;;;;4968605;28;20085;-76
2022/02/12 11:15:49;;;;;;;16.80;8.82;;;7.70;61.20;;;;;;4965452;28;20097;-71
2022/02/12 11:18:19;;;;;;;18.45;8.27;;;7.60;60.50;;;;;;4968533;28;20089;-71
2022/02/12 11:20:46;;;;;;;18.10;8.68;;;7.60;60.50;;;;;;4970928;28;20034;-73
2022/02/12 11:23:21;;;;;;;18.20;9.18;;;7.60;61.30;;;;;;4968181;28;20545;-73
2022/02/12 11:25:51;;;;;;;17.45;7.97;;;7.70;61.20;;;;;;4961939;28;20068;-76
2022/02/12 11:28:18;;;;;;;18.50;9.27;;;7.70;61.20;;;;;;4967629;28;20035;-74
2022/02/12 11:30:45;;;;;;;20.88;8.40;;;7.90;60.90;;;;;;4971051;28;20042;-73
2022/02/12 11:33:22;;;;;;;15.57;7.30;;;7.70;60.40;;;;;;4972515;28;20046;-71
2022/02/12 11:36:18;;;;;;;18.95;7.80;;;7.90;61.00;;;;;;4972372;28;20086;-71
2022/02/12 11:38:46;;;;;;;15.18;6.97;;;8.10;60.30;;;;;;4966931;28;20067;-73
2022/02/12 11:41:22;;;;;;;16.92;6.80;;;8.20;59.30;;;;;;4968351;28;20031;-71
2022/02/12 11:43:48;;;;;;;17.83;6.47;;;8.10;59.20;;;;;;4967937;28;20474;-72
2022/02/12 11:46:17;;;;;;;15.50;7.45;;;8.10;59.10;;;;;;4967599;28;20042;-71
2022/02/12 11:48:43;;;;;;;16.75;7.18;;;8.10;59.80;;;;;;4966267;28;20390;-74
2022/02/12 11:51:11;;;;;;;18.15;8.52;;;8.20;60.10;;;;;;4976775;28;20497;-71
2022/02/12 11:53:50;;;;;;;20.38;6.43;;;8.40;60.20;;;;;;4971639;28;20062;-73
2022/02/12 11:56:18;;;;;;;14.48;5.82;;;8.50;57.90;;;;;;4960962;28;20549;-71
2022/02/12 11:58:45;;;;;;;15.07;5.70;;;8.50;57.40;;;;;;4958197;28;20106;-74
2022/02/12 12:01:38;;;;;;;14.02;5.35;;;8.50;57.30;;;;;;4963647;28;20165;-72
2022/02/12 12:04:14;;;;;;;13.10;5.43;;;8.60;56.20;;;;;;4951650;28;20052;-73
2022/02/12 12:07:08;;;;;;;15.43;5.50;;;8.60;55.90;;;;;;4957537;28;20039;-70
2022/02/12 12:09:36;;;;;;;13.15;5.82;;;8.60;55.40;;;;;;4953977;28;20042;-74
2022/02/12 12:12:22;;;;;;;13.50;5.82;;;8.50;56.00;;;;;;4957624;28;20054;-70
2022/02/12 12:15:11;;;;;;;16.73;4.90;;;8.60;55.10;;;;;;4950288;28;20087;-73
2022/02/12 12:17:37;;;;;;;13.57;6.18;;;8.40;55.60;;;;;;4954338;28;20058;-72
2022/02/12 12:20:03;;;;;;;14.55;6.25;;;8.50;55.90;;;;;;4950858;28;20051;-70
2022/02/12 12:22:29;;;;;;;13.00;5.20;;;8.50;56.30;;;;;;4956302;28;20034;-71
2022/02/12 12:24:58;;;;;;;12.98;5.20;;;8.40;55.40;;;;;;4954237;28;20039;-72
2022/02/12 12:27:24;;;;;;;14.40;5.30;;;8.40;56.00;;;;;;4955125;28;20038;-75
2022/02/12 12:32:34;;;;;;;9.52;4.30;;;8.60;53.80;;;;;;4960962;28;20054;-71
2022/02/12 12:35:08;;;;;;;14.70;5.22;;;8.60;53.40;;;;;;4957320;28;20074;-73
2022/02/12 12:37:54;;;;;;;12.63;5.05;;;8.50;52.90;;;;;;4960540;28;20042;-74
2022/02/12 12:40:31;;;;;;;11.57;5.10;;;8.60;52.80;;;;;;4963548;28;20402;-70
2022/02/12 12:43:03;;;;;;;12.75;4.78;;;8.70;52.50;;;;;;4964998;28;21250;-70
2022/02/12 12:45:29;;;;;;;14.15;5.18;;;8.70;51.50;;;;;;4963302;28;20069;-73
2022/02/12 12:47:58;;;;;;;10.85;4.93;;;8.70;52.80;;;;;;4969896;28;20414;-71
2022/02/12 12:50:24;;;;;;;13.93;6.03;;;8.60;52.60;;;;;;4967906;28;20035;-70
2022/02/12 12:53:16;;;;;;;14.00;5.03;;;8.70;53.20;;;;;;4953235;28;20038;-71